Time;durP1;ratioP1;P1;durP2;ratioP2;P2;SDS_P1;SDS_P2;PMS_P1;PMS_P2;Temp;Humidity;BMP_temperature;BMP_pressure;BME280_temperature;BME280_humidity;BME280_pressure;Samples;Min_cycle;Max_cycle;Signal;HPM_P1;HPM_P2
2022/05/05 00:01:16;;;;;;;7.95;4.85;;;;;;;19.27;47.61;100645.19;5112637;28;20130;-82
2022/05/05 00:03:43;;;;;;;7.78;4.65;;;;;;;19.27;47.44;100650.84;5112999;28;20067;-81
2022/05/05 00:06:10;;;;;;;7.95;5.30;;;;;;;19.09;47.75;100630.25;5108779;28;20039;-82
2022/05/05 00:08:37;;;;;;;10.65;5.70;;;;;;;19.23;47.79;100655.53;5113597;28;20079;-82
2022/05/05 00:16:35;;;;;;;12.82;4.80;;;;;;;19.08;46.94;100615.28;5093538;28;20473;-78
2022/05/05 00:19:02;;;;;;;7.43;4.65;;;;;;;19.15;47.52;100641.06;5106633;28;20091;-81
2022/05/05 00:21:29;;;;;;;9.80;4.75;;;;;;;18.97;47.26;100636.59;5105163;28;20494;-80
2022/05/05 00:23:56;;;;;;;6.13;3.83;;;;;;;18.92;47.59;100642.44;5115717;27;20083;-80
2022/05/05 00:26:26;;;;;;;6.82;4.32;;;;;;;18.79;47.29;100630.13;5117473;28;20079;-81
2022/05/05 00:28:53;;;;;;;7.95;4.32;;;;;;;19.04;47.15;100642.59;5114025;28;20048;-80
2022/05/05 00:31:19;;;;;;;9.77;4.63;;;;;;;18.99;46.63;100627.78;5110303;28;20039;-81
2022/05/05 00:33:46;;;;;;;9.75;4.85;;;;;;;19.08;46.22;100635.09;5114381;28;20047;-81
2022/05/05 00:36:13;;;;;;;12.00;4.18;;;;;;;19.23;46.71;100653.53;5114515;28;20130;-81
2022/05/05 00:38:40;;;;;;;9.00;4.13;;;;;;;19.11;46.29;100636.41;5114655;28;20086;-82
2022/05/05 00:41:08;;;;;;;8.43;4.68;;;;;;;19.14;46.87;100649.88;5116022;27;20552;-81
2022/05/05 00:43:35;;;;;;;8.48;4.32;;;;;;;19.04;46.95;100630.41;5114356;27;20087;-81
2022/05/05 00:46:03;;;;;;;6.65;4.35;;;;;;;19.02;47.30;100632.78;5112361;27;20476;-81
2022/05/05 00:48:31;;;;;;;11.07;4.93;;;;;;;19.09;46.91;100636.75;5115508;28;20094;-81
2022/05/05 00:50:58;;;;;;;13.32;5.50;;;;;;;18.79;46.56;100578.38;5114135;27;20039;-81
2022/05/05 00:53:26;;;;;;;11.80;4.75;;;;;;;19.05;47.02;100620.78;5112358;27;20047;-82
2022/05/05 00:56:02;;;;;;;8.05;5.07;;;;;;;18.83;47.09;100590.69;5115352;28;20048;-81
2022/05/05 00:58:29;;;;;;;11.48;5.18;;;;;;;19.11;46.96;100631.59;5115117;27;20075;-79
2022/05/05 01:01:01;;;;;;;9.90;5.05;;;;;;;19.13;47.45;100629.25;5115499;28;20565;-83
2022/05/05 01:03:30;;;;;;;13.55;5.15;;;;;;;19.08;47.34;100631.44;5114690;28;20081;-84
2022/05/05 01:05:57;;;;;;;9.50;4.82;;;;;;;18.98;46.97;100614.81;5115724;28;20078;-84
2022/05/05 01:08:24;;;;;;;11.45;5.65;;;;;;;19.03;47.04;100632.41;5115179;28;20130;-84
2022/05/05 01:10:52;;;;;;;10.95;6.07;;;;;;;19.00;47.61;100627.44;5116239;28;20075;-89
2022/05/05 01:13:19;;;;;;;12.00;5.68;;;;;;;18.99;47.50;100627.78;5115891;28;20052;-88
2022/05/05 01:15:46;;;;;;;9.43;5.60;;;;;;;18.98;47.37;100629.78;5117719;27;20071;-88
2022/05/05 01:18:13;;;;;;;10.18;5.85;;;;;;;18.91;47.72;100615.31;5115622;28;20140;-87
2022/05/05 01:20:47;;;;;;;10.57;5.97;;;;;;;18.93;47.45;100618.63;5115559;28;20541;-86
2022/05/05 01:23:15;;;;;;;10.55;6.32;;;;;;;18.97;47.48;100619.59;5115507;28;20078;-86
2022/05/05 01:28:31;;;;;;;11.02;5.40;;;;;;;18.72;48.29;100612.81;5115731;28;20055;-81
2022/05/05 01:30:59;;;;;;;12.10;5.80;;;;;;;18.66;48.47;100626.25;5115578;28;20039;-88
2022/05/05 01:33:27;;;;;;;13.07;6.47;;;;;;;18.49;49.01;100612.13;5122985;27;20079;-81
2022/05/05 01:35:56;;;;;;;10.45;5.75;;;;;;;18.28;49.03;100591.34;5110851;28;20417;-82
2022/05/05 01:38:25;;;;;;;13.05;6.63;;;;;;;18.37;49.44;100614.81;5115304;28;20075;-82
2022/05/05 01:40:52;;;;;;;15.73;6.47;;;;;;;18.32;49.19;100610.13;5115772;28;20134;-83
2022/05/05 01:43:21;;;;;;;11.80;6.57;;;;;;;18.45;48.90;100622.44;5115094;27;20131;-82
2022/05/05 01:45:48;;;;;;;11.88;6.35;;;;;;;18.24;48.97;100589.19;5115272;28;20134;-85
2022/05/05 01:48:15;;;;;;;11.27;6.30;;;;;;;18.23;49.19;100618.63;5115804;28;20532;-86
2022/05/05 01:50:42;;;;;;;12.00;6.10;;;;;;;18.21;49.45;100625.75;5116361;27;20074;-86
2022/05/05 01:53:09;;;;;;;12.35;5.28;;;;;;;18.07;49.21;100608.94;5113729;28;20047;-85
2022/05/05 01:55:35;;;;;;;13.77;6.50;;;;;;;18.00;49.45;100615.06;5112342;27;20077;-86
2022/05/05 01:58:03;;;;;;;10.77;5.63;;;;;;;17.80;49.91;100595.09;5115050;27;20071;-86
2022/05/05 02:00:31;;;;;;;13.75;6.63;;;;;;;17.83;50.02;100602.91;5115042;27;20078;-82
2022/05/05 02:02:58;;;;;;;10.35;6.30;;;;;;;17.68;50.09;100599.34;5112553;28;20050;-82
2022/05/05 02:05:26;;;;;;;11.73;5.63;;;;;;;17.64;50.49;100617.25;5115129;27;20449;-82
2022/05/05 02:07:53;;;;;;;10.60;6.53;;;;;;;17.60;50.71;100616.25;5110775;27;20135;-86
2022/05/05 02:10:20;;;;;;;10.98;6.28;;;;;;;17.45;50.35;100598.59;5148013;27;20071;-86
2022/05/05 02:12:48;;;;;;;11.68;6.65;;;;;;;17.51;50.79;100624.69;5113736;27;20078;-88
2022/05/05 02:15:15;;;;;;;12.38;6.22;;;;;;;17.44;50.93;100635.63;5114863;27;20135;-85
2022/05/05 02:17:44;;;;;;;12.27;6.13;;;;;;;17.32;50.84;100608.00;5128536;27;20044;-79
2022/05/05 02:20:12;;;;;;;16.38;6.53;;;;;;;17.23;51.12;100595.81;5126082;27;20044;-84
2022/05/05 02:22:40;;;;;;;10.68;5.80;;;;;;;17.30;51.31;100618.78;5126497;27;20071;-84
2022/05/05 02:25:08;;;;;;;10.40;5.68;;;;;;;17.22;51.34;100623.22;5118611;27;20079;-85
2022/05/05 02:27:51;;;;;;;10.50;6.63;;;;;;;16.93;51.76;100583.41;5112109;27;21474;-85
2022/05/05 02:30:20;;;;;;;10.77;6.72;;;;;;;17.01;51.79;100582.59;5110143;27;20061;-86
2022/05/05 02:32:47;;;;;;;14.32;8.27;;;;;;;17.06;51.74;100610.69;5114641;28;20108;-85
2022/05/05 02:35:14;;;;;;;12.02;6.38;;;;;;;17.11;51.61;100599.25;5112065;27;20090;-84
2022/05/05 02:40:27;;;;;;;13.32;5.95;;;;;;;17.28;50.82;100588.06;5100545;28;20071;-83
2022/05/05 02:42:56;;;;;;;12.32;7.00;;;;;;;17.36;50.95;100611.00;5114531;28;20052;-83
2022/05/05 02:45:23;;;;;;;11.18;6.10;;;;;;;17.17;51.18;100603.63;5112203;28;20094;-83
2022/05/05 02:47:50;;;;;;;13.52;7.38;;;;;;;17.19;51.53;100623.84;5145872;27;20126;-82
2022/05/05 02:50:18;;;;;;;14.35;7.57;;;;;;;17.09;51.46;100600.72;5112964;28;20114;-81
2022/05/05 02:52:45;;;;;;;12.57;6.25;;;;;;;17.28;51.17;100633.22;5112606;28;20500;-81
2022/05/05 02:55:12;;;;;;;11.00;6.53;;;;;;;17.28;50.81;100605.00;5114105;27;20065;-80
2022/05/05 02:57:40;;;;;;;10.85;7.22;;;;;;;17.37;50.87;100618.34;5114951;27;20078;-86
2022/05/05 03:00:12;;;;;;;12.85;6.65;;;;;;;17.46;50.74;100622.00;5113186;28;20126;-83
2022/05/05 03:02:41;;;;;;;9.88;6.35;;;;;;;17.51;50.60;100628.34;5115167;27;20391;-83
2022/05/05 03:05:10;;;;;;;13.27;6.55;;;;;;;17.58;50.44;100629.88;5117370;27;20048;-81
2022/05/05 03:07:37;;;;;;;13.63;7.38;;;;;;;17.54;50.68;100621.22;5113286;28;20044;-81
2022/05/05 03:10:05;;;;;;;14.65;7.32;;;;;;;17.51;50.23;100607.75;5113706;28;20047;-84
2022/05/05 03:12:32;;;;;;;12.43;7.43;;;;;;;17.74;50.08;100639.56;5112489;28;20100;-84
2022/05/05 03:14:59;;;;;;;12.52;6.53;;;;;;;17.76;50.67;100642.94;5112189;28;20141;-80
2022/05/05 03:17:25;;;;;;;12.45;7.05;;;;;;;17.66;50.52;100637.53;5112648;28;20075;-82
2022/05/05 03:19:53;;;;;;;16.05;6.70;;;;;;;17.64;50.46;100632.22;5108025;28;20382;-79
2022/05/05 03:22:20;;;;;;;13.00;6.18;;;;;;;17.47;50.33;100601.06;5140972;27;20180;-81
2022/05/05 03:24:47;;;;;;;14.88;6.95;;;;;;;17.73;50.37;100640.72;5128851;28;20071;-83
2022/05/05 03:27:14;;;;;;;13.77;6.35;;;;;;;17.79;50.37;100664.88;5121474;28;20086;-79
2022/05/05 03:29:41;;;;;;;12.20;7.05;;;;;;;17.74;50.45;100665.84;5113993;28;20126;-81
2022/05/05 03:32:08;;;;;;;14.02;7.47;;;;;;;17.59;50.15;100643.66;5112996;28;20127;-84
2022/05/05 03:34:35;;;;;;;10.63;6.70;;;;;;;17.59;50.65;100657.78;5116193;27;20190;-82
2022/05/05 03:37:02;;;;;;;13.60;7.20;;;;;;;17.59;50.48;100657.78;5113009;28;20047;-83
2022/05/05 03:39:29;;;;;;;15.52;6.80;;;;;;;17.61;50.60;100666.78;5110581;28;20085;-82
2022/05/05 03:41:56;;;;;;;11.70;6.40;;;;;;;17.32;50.72;100621.28;5113571;28;20071;-83
2022/05/05 03:44:23;;;;;;;10.48;5.95;;;;;;;17.57;50.42;100657.25;5112127;28;20079;-83
2022/05/05 03:46:49;;;;;;;10.45;6.00;;;;;;;17.56;50.18;100649.13;5111677;28;20054;-82
2022/05/05 03:49:16;;;;;;;13.88;7.32;;;;;;;17.62;50.08;100657.13;5110462;28;20490;-84
2022/05/05 03:51:44;;;;;;;12.85;6.28;;;;;;;17.62;50.49;100656.31;5113040;28;20067;-84
2022/05/05 03:54:11;;;;;;;13.25;7.32;;;;;;;17.53;50.24;100639.31;5112692;28;20104;-84
2022/05/05 03:56:40;;;;;;;11.65;6.93;;;;;;;17.59;50.17;100654.97;5112035;28;20083;-84
2022/05/05 03:59:06;;;;;;;14.68;6.65;;;;;;;17.14;50.83;100601.44;5116878;27;20462;-81
2022/05/05 04:01:33;;;;;;;12.02;6.40;;;;;;;17.53;50.72;100659.06;5117926;28;20078;-82
2022/05/05 04:04:00;;;;;;;11.63;6.93;;;;;;;17.51;50.80;100676.34;5116492;28;20044;-80
2022/05/05 04:06:27;;;;;;;10.48;6.97;;;;;;;17.26;51.19;100646.84;5116760;27;20078;-83
2022/05/05 04:08:54;;;;;;;12.18;6.95;;;;;;;17.14;51.16;100624.00;5116241;28;20539;-82
2022/05/05 04:11:21;;;;;;;12.10;7.18;;;;;;;17.31;50.57;100648.69;5116772;27;20074;-82
2022/05/05 04:13:48;;;;;;;10.07;7.13;;;;;;;17.50;50.68;100673.84;5119655;27;20067;-81
2022/05/05 04:16:15;;;;;;;14.10;7.57;;;;;;;17.31;50.96;100639.38;5119333;27;20085;-78
2022/05/05 04:18:43;;;;;;;15.38;6.82;;;;;;;17.52;50.64;100674.34;5113551;27;20039;-78
2022/05/05 04:21:10;;;;;;;13.10;6.93;;;;;;;17.42;50.79;100660.53;5118315;28;20443;-78
2022/05/05 04:23:37;;;;;;;12.55;7.53;;;;;;;17.31;50.81;100636.56;5119201;27;20478;-80
2022/05/05 04:26:12;;;;;;;11.75;6.75;;;;;;;17.50;50.55;100669.06;5118636;28;20051;-79
2022/05/05 04:28:44;;;;;;;12.88;7.35;;;;;;;17.48;50.98;100670.53;5117599;28;20086;-78
2022/05/05 04:31:13;;;;;;;11.75;6.95;;;;;;;17.50;51.15;100663.41;5117005;28;20075;-78
2022/05/05 04:33:42;;;;;;;15.70;7.70;;;;;;;17.45;51.00;100669.19;5118206;28;20051;-78
2022/05/05 04:36:10;;;;;;;11.10;7.10;;;;;;;17.49;50.90;100678.66;5117362;28;20052;-77
2022/05/05 04:38:37;;;;;;;15.97;7.53;;;;;;;17.35;51.19;100665.78;5116278;28;20078;-79
2022/05/05 04:41:05;;;;;;;12.63;7.00;;;;;;;17.16;51.06;100626.50;5126894;27;20127;-80
2022/05/05 04:43:33;;;;;;;12.02;7.65;;;;;;;17.42;51.38;100675.47;5115773;28;20156;-80
2022/05/05 04:46:01;;;;;;;10.45;6.70;;;;;;;17.34;51.14;100666.97;5116526;28;20079;-78
2022/05/05 04:48:27;;;;;;;13.20;7.15;;;;;;;17.11;51.43;100633.13;5115149;28;20085;-78
2022/05/05 04:50:54;;;;;;;13.35;7.60;;;;;;;17.40;51.31;100691.06;5116931;28;20046;-80
2022/05/05 04:53:21;;;;;;;13.13;7.88;;;;;;;17.32;51.16;100680.56;5116362;28;20126;-80
2022/05/05 04:55:48;;;;;;;10.50;7.22;;;;;;;17.45;51.22;100699.41;5110621;27;20741;-79
2022/05/05 04:58:21;;;;;;;11.93;6.45;;;;;;;17.23;51.34;100672.03;5112967;28;20051;-79
2022/05/05 05:00:48;;;;;;;16.05;7.78;;;;;;;17.31;51.77;100698.66;5114935;28;20143;-80
2022/05/05 05:03:35;;;;;;;15.65;7.55;;;;;;;17.30;51.80;100711.94;5108286;27;20490;-80
2022/05/05 05:06:05;;;;;;;17.98;8.05;;;;;;;17.25;52.02;100695.13;5106133;28;20051;-80
2022/05/05 05:08:35;;;;;;;12.57;7.47;;;;;;;17.19;51.69;100702.88;5115179;28;20047;-80
2022/05/05 05:11:02;;;;;;;13.45;7.20;;;;;;;17.24;52.09;100728.16;5114116;28;20520;-79
2022/05/05 05:13:29;;;;;;;10.30;6.65;;;;;;;17.22;51.88;100738.94;5117186;27;20142;-79
2022/05/05 05:15:56;;;;;;;10.83;6.73;;;;;;;17.03;51.92;100705.28;5118200;27;20118;-78
2022/05/05 05:18:23;;;;;;;15.10;7.73;;;;;;;17.03;51.99;100708.09;5112004;28;20047;-78
2022/05/05 05:20:50;;;;;;;12.03;6.87;;;;;;;16.90;52.40;100689.22;5106421;27;20178;-79
2022/05/05 05:23:17;;;;;;;17.35;8.48;;;;;;;17.02;52.02;100714.03;5114619;28;20067;-81
2022/05/05 05:25:44;;;;;;;17.60;9.20;;;;;;;17.05;52.23;100725.50;5113524;28;20130;-81
2022/05/05 05:28:12;;;;;;;14.95;7.43;;;;;;;16.99;52.19;100704.25;5120754;27;20075;-79
2022/05/05 05:30:40;;;;;;;13.80;8.25;;;;;;;17.15;52.52;100744.19;5113652;27;20055;-83
2022/05/05 05:33:08;;;;;;;18.67;8.73;;;;;;;17.12;52.38;100738.34;5116648;27;20059;-81
2022/05/05 05:35:35;;;;;;;14.90;8.07;;;;;;;17.05;52.49;100733.97;5113705;28;20166;-83
2022/05/05 05:38:02;;;;;;;11.75;6.80;;;;;;;17.21;52.15;100753.38;5113660;28;20039;-82
2022/05/05 05:40:29;;;;;;;10.43;6.63;;;;;;;17.16;52.50;100754.34;5119281;28;20082;-83
2022/05/05 05:42:57;;;;;;;13.83;7.87;;;;;;;17.21;52.58;100757.03;5115484;28;20044;-81
2022/05/05 05:45:24;;;;;;;13.07;8.37;;;;;;;17.09;52.60;100744.63;5126131;27;20100;-83
2022/05/05 05:47:51;;;;;;;17.40;8.98;;;;;;;17.07;52.61;100744.97;5117564;28;20051;-83
2022/05/05 05:50:18;;;;;;;18.67;8.50;;;;;;;17.17;52.54;100758.81;5122279;28;20039;-81
2022/05/05 05:52:45;;;;;;;15.13;7.53;;;;;;;17.24;52.51;100766.84;5125664;28;20069;-77
2022/05/05 05:55:12;;;;;;;17.00;7.78;;;;;;;17.23;52.45;100771.66;5127214;28;20047;-78
2022/05/05 05:57:39;;;;;;;16.05;8.88;;;;;;;17.03;52.43;100735.47;5116947;27;20094;-85
2022/05/05 06:00:07;;;;;;;14.73;7.30;;;;;;;17.33;52.59;100772.53;5115485;27;20078;-83
2022/05/05 06:05:21;;;;;;;14.40;7.90;;;;;;;17.68;52.19;100782.94;5114533;27;20112;-83
2022/05/05 06:07:48;;;;;;;17.33;7.53;;;;;;;17.76;52.11;100775.69;5109743;28;20098;-83
2022/05/05 06:10:19;;;;;;;12.18;7.20;;;;;;;17.94;51.80;100773.78;5117143;27;20555;-83
2022/05/05 06:12:46;;;;;;;18.05;8.48;;;;;;;18.27;51.81;100799.69;5109436;28;20467;-82
2022/05/05 06:15:13;;;;;;;13.48;7.05;;;;;;;18.51;51.32;100804.94;5112618;27;20460;-83
2022/05/05 06:17:40;;;;;;;17.33;8.00;;;;;;;18.60;50.84;100786.00;5111499;27;20517;-83
2022/05/05 06:20:08;;;;;;;13.45;8.10;;;;;;;19.01;50.78;100806.56;5112233;28;20047;-78
2022/05/05 06:22:35;;;;;;;11.35;5.97;;;;;;;19.25;50.15;100815.44;5112959;28;20075;-79
2022/05/05 06:25:02;;;;;;;12.00;7.03;;;;;;;19.50;49.94;100816.56;5113678;27;20134;-79
2022/05/05 06:27:29;;;;;;;13.05;6.80;;;;;;;19.70;49.66;100811.44;5111971;27;20096;-79
2022/05/05 06:29:56;;;;;;;12.40;6.70;;;;;;;20.03;49.27;100815.34;5111954;28;20134;-79
2022/05/05 06:32:23;;;;;;;7.78;5.32;;;;;;;20.35;48.62;100832.91;5113338;28;20462;-77
2022/05/05 06:34:50;;;;;;;13.13;5.80;;;;;;;20.42;48.57;100819.03;5110151;28;20050;-80
2022/05/05 06:37:17;;;;;;;7.95;5.35;;;;;;;20.69;48.22;100837.63;5098410;28;20078;-81
2022/05/05 06:39:44;;;;;;;10.52;5.60;;;;;;;20.88;47.82;100834.31;5111602;27;20079;-79
2022/05/05 06:42:11;;;;;;;9.00;5.30;;;;;;;21.02;47.52;100840.56;5110527;28;20131;-79
2022/05/05 06:44:38;;;;;;;8.15;5.45;;;;;;;21.02;47.23;100811.34;5111731;27;20533;-82
2022/05/05 06:47:04;;;;;;;8.77;5.53;;;;;;;21.36;46.80;100850.03;5111849;28;20067;-83
2022/05/05 06:49:31;;;;;;;9.25;4.70;;;;;;;21.42;46.75;100836.47;5114598;27;20127;-82
2022/05/05 06:51:59;;;;;;;8.70;5.68;;;;;;;21.48;46.28;100810.34;5111437;28;20450;-83
2022/05/05 06:54:30;;;;;;;8.48;5.28;;;;;;;21.79;46.03;100843.16;5109133;28;20054;-82
2022/05/05 06:56:57;;;;;;;10.15;5.15;;;;;;;22.12;45.68;100859.34;5112448;28;20117;-82
2022/05/05 06:59:24;;;;;;;5.47;3.95;;;;;;;22.08;45.38;100830.78;5112437;28;20120;-81
2022/05/05 07:01:52;;;;;;;6.85;4.47;;;;;;;22.18;45.00;100846.59;5113844;28;20078;-81
2022/05/05 07:07:13;;;;;;;11.10;5.03;;;;;;;22.27;44.25;100835.97;5113001;28;20043;-82
2022/05/05 07:12:27;;;;;;;6.15;4.25;;;;;;;22.48;44.18;100852.94;5111976;28;20096;-82
2022/05/05 07:14:54;;;;;;;9.38;4.82;;;;;;;22.73;43.60;100859.47;5114023;28;20202;-81
2022/05/05 07:17:23;;;;;;;12.32;6.03;;;;;;;23.03;43.18;100853.56;5108486;28;20044;-81
2022/05/05 07:19:51;;;;;;;7.40;4.50;;;;;;;23.30;42.84;100872.75;5111035;28;20142;-82
2022/05/05 07:22:19;;;;;;;6.65;4.03;;;;;;;23.51;42.60;100881.13;5113455;28;20131;-81
2022/05/05 07:24:46;;;;;;;7.68;4.78;;;;;;;23.65;42.19;100863.63;5114814;28;20082;-81
2022/05/05 07:27:14;;;;;;;8.77;4.95;;;;;;;24.00;42.30;100880.13;5113386;28;20130;-82
2022/05/05 07:29:41;;;;;;;9.15;4.80;;;;;;;24.23;41.87;100878.34;5105262;28;20067;-82
2022/05/05 07:32:09;;;;;;;5.43;3.92;;;;;;;24.45;41.22;100878.97;5109730;28;20130;-82
2022/05/05 07:34:36;;;;;;;6.57;4.28;;;;;;;24.60;40.69;100903.84;5109798;28;20395;-82
2022/05/05 07:37:03;;;;;;;7.20;4.30;;;;;;;24.83;40.25;100889.75;5108628;27;20146;-82
2022/05/05 07:39:30;;;;;;;7.82;4.03;;;;;;;25.16;39.56;100902.81;5109455;28;20048;-81
2022/05/05 07:41:57;;;;;;;9.88;4.68;;;;;;;25.25;39.59;100921.44;5111432;28;20044;-81
2022/05/05 07:44:24;;;;;;;6.25;4.10;;;;;;;25.10;39.29;100896.56;5113416;27;20060;-80
2022/05/05 07:46:51;;;;;;;10.80;4.10;;;;;;;25.02;38.95;100906.94;5112121;28;20078;-81
2022/05/05 07:49:18;;;;;;;7.28;3.65;;;;;;;24.90;38.95;100923.38;5111268;28;20140;-81
2022/05/05 07:51:45;;;;;;;10.15;4.22;;;;;;;24.82;38.84;100906.06;5108311;28;20142;-81
2022/05/05 07:56:57;;;;;;;8.77;5.05;;;;;;;25.06;38.62;100907.06;5109643;28;20108;-81
2022/05/05 07:59:24;;;;;;;8.93;4.43;;;;;;;25.17;38.12;100922.47;5109932;28;20131;-80
2022/05/05 08:01:51;;;;;;;18.33;8.75;;;;;;;25.18;38.05;100918.41;5103508;28;20040;-81
2022/05/05 08:04:17;;;;;;;10.18;6.05;;;;;;;25.38;37.95;100904.16;5108769;28;20150;-81
2022/05/05 08:06:45;;;;;;;7.10;4.63;;;;;;;25.74;37.51;100918.06;5105002;28;20075;-81
2022/05/05 08:09:12;;;;;;;7.00;5.00;;;;;;;25.98;37.15;100921.84;5108148;28;20455;-82
2022/05/05 08:11:39;;;;;;;7.20;4.85;;;;;;;26.13;37.32;100918.09;5110704;28;20087;-83
2022/05/05 08:14:08;;;;;;;14.45;5.35;;;;;;;26.33;36.88;100921.78;5114765;28;20125;-83
2022/05/05 08:16:34;;;;;;;9.93;6.10;;;;;;;26.59;36.92;100925.94;5110509;28;20079;-83
2022/05/05 08:19:02;;;;;;;7.55;4.22;;;;;;;26.71;36.19;100925.78;5110014;28;20300;-83
2022/05/05 08:21:28;;;;;;;6.80;4.32;;;;;;;26.45;36.25;100915.03;5107610;28;20567;-70
2022/05/05 08:29:26;;;;;;;5.93;4.32;;;;;;;26.08;35.37;100901.22;5108896;28;20058;-73
2022/05/05 08:31:53;;;;;;;8.35;4.57;;;;;;;26.34;35.54;100925.47;5107757;28;20079;-73
2022/05/05 08:34:20;;;;;;;7.35;4.43;;;;;;;26.55;35.40;100917.28;5106184;28;20520;-70
2022/05/05 08:36:47;;;;;;;8.07;4.82;;;;;;;26.81;35.30;100918.59;5113364;27;20142;-70
2022/05/05 08:39:18;;;;;;;6.50;3.97;;;;;;;27.09;35.00;100919.06;5110387;28;20100;-69
2022/05/05 08:41:47;;;;;;;8.07;4.10;;;;;;;27.01;34.61;100916.44;5108294;28;20093;-71
2022/05/05 08:44:14;;;;;;;6.60;4.40;;;;;;;27.05;34.57;100923.09;5109522;28;20079;-72
2022/05/05 08:46:45;;;;;;;6.13;4.03;;;;;;;27.19;34.27;100919.66;5111375;28;20134;-71
2022/05/05 08:49:12;;;;;;;10.43;4.55;;;;;;;27.13;34.14;100899.06;5114950;28;20048;-69
2022/05/05 08:51:45;;;;;;;13.15;4.82;;;;;;;27.47;34.08;100917.22;5110633;27;20134;-68
2022/05/05 08:54:17;;;;;;;6.75;3.80;;;;;;;27.59;33.90;100902.66;5102045;27;20075;-70
2022/05/05 08:56:48;;;;;;;11.35;4.97;;;;;;;27.85;33.49;100912.44;5110755;28;20047;-71
2022/05/05 08:59:16;;;;;;;8.15;4.00;;;;;;;28.15;33.11;100911.59;5104464;27;20083;-73
2022/05/05 09:01:44;;;;;;;5.63;4.07;;;;;;;28.24;32.99;100909.19;5114284;28;20146;-71
2022/05/05 09:04:12;;;;;;;8.80;4.50;;;;;;;28.57;33.09;100914.13;5113543;28;20047;-70
2022/05/05 09:06:51;;;;;;;5.65;3.70;;;;;;;28.25;32.89;100911.69;5105464;27;20142;-70
2022/05/05 09:09:26;;;;;;;8.05;4.22;;;;;;;27.77;32.32;100891.44;5110415;28;20044;-71
2022/05/05 09:12:14;;;;;;;6.68;4.28;;;;;;;27.71;32.62;100915.91;5106761;28;20127;-73
2022/05/05 09:14:48;;;;;;;5.85;3.60;;;;;;;27.84;33.06;100916.53;5109357;28;20494;-72
2022/05/05 09:17:18;;;;;;;7.35;4.07;;;;;;;27.92;32.47;100915.41;5107767;28;20626;-71
2022/05/05 09:19:51;;;;;;;8.82;3.92;;;;;;;27.94;32.69;100909.28;5111099;27;20134;-74
2022/05/05 09:22:23;;;;;;;7.20;3.85;;;;;;;28.14;32.62;100907.88;5107423;28;20044;-70
2022/05/05 09:24:52;;;;;;;9.18;3.90;;;;;;;28.61;32.47;100914.97;5113153;27;20405;-71
2022/05/05 09:27:20;;;;;;;6.22;4.22;;;;;;;28.75;31.85;100906.50;5112239;27;20078;-70
2022/05/05 09:30:00;;;;;;;9.05;3.72;;;;;;;28.90;31.67;100916.06;5112970;28;20130;-70
2022/05/05 09:32:29;;;;;;;6.47;3.15;;;;;;;28.93;31.16;100923.09;5107151;28;20060;-70
2022/05/05 09:35:02;;;;;;;4.30;3.20;;;;;;;28.80;31.39;100914.75;5107802;27;20086;-71
2022/05/05 09:37:30;;;;;;;6.65;4.05;;;;;;;28.71;30.89;100927.78;5113776;28;20547;-69
2022/05/05 09:40:01;;;;;;;5.13;3.45;;;;;;;28.84;30.89;100920.53;5112343;28;20118;-71
2022/05/05 09:42:43;;;;;;;5.25;4.00;;;;;;;29.10;30.90;100910.94;5113750;28;20130;-70
2022/05/05 09:45:24;;;;;;;6.15;3.78;;;;;;;29.80;30.41;100934.84;5109455;27;20086;-70
2022/05/05 09:47:53;;;;;;;6.47;4.13;;;;;;;30.13;29.85;100938.69;5110454;28;20047;-70
2022/05/05 09:50:25;;;;;;;6.53;4.18;;;;;;;30.20;29.97;100935.88;5112504;28;20610;-70
2022/05/05 09:58:29;;;;;;;7.32;3.83;;;;;;;31.16;29.04;100932.34;5105860;27;20075;-70
2022/05/05 10:00:59;;;;;;;4.22;2.92;;;;;;;30.89;28.59;100911.75;5109849;27;20130;-70
2022/05/05 10:06:18;;;;;;;3.83;2.95;;;;;;;31.22;28.40;100924.91;5112525;27;20436;-70
2022/05/05 10:08:49;;;;;;;7.50;3.50;;;;;;;31.44;28.52;100924.91;5104076;28;20135;-69
2022/05/05 10:11:16;;;;;;;9.38;4.10;;;;;;;31.63;28.11;100910.84;5104466;28;20130;-69
2022/05/05 10:13:45;;;;;;;4.85;3.90;;;;;;;31.83;27.88;100914.09;5111908;27;20071;-69
2022/05/05 10:16:16;;;;;;;8.15;3.13;;;;;;;31.63;27.70;100919.50;5110093;27;20047;-69
2022/05/05 10:18:43;;;;;;;4.85;3.35;;;;;;;31.61;27.26;100935.59;5111869;27;20044;-69
2022/05/05 10:21:19;;;;;;;6.60;3.53;;;;;;;31.52;27.55;100932.31;5098939;28;20076;-69
2022/05/05 10:23:58;;;;;;;4.05;3.63;;;;;;;31.84;27.44;100927.28;5104068;28;20117;-70
2022/05/05 10:26:26;;;;;;;5.53;4.25;;;;;;;32.15;27.83;100929.66;5108888;27;20047;-69
2022/05/05 10:28:53;;;;;;;6.70;3.35;;;;;;;32.23;27.45;100920.53;5110556;28;20134;-70
2022/05/05 10:31:34;;;;;;;5.38;3.75;;;;;;;32.32;27.37;100918.00;5106480;27;20185;-69
2022/05/05 10:34:06;;;;;;;7.97;3.67;;;;;;;32.40;27.51;100901.44;5104468;27;20489;-77
2022/05/05 10:36:35;;;;;;;8.55;4.10;;;;;;;32.77;27.29;100921.03;5110990;27;20143;-78
2022/05/05 10:39:18;;;;;;;6.55;4.40;;;;;;;32.77;27.60;100918.16;5110842;28;20079;-78
2022/05/05 10:41:45;;;;;;;6.90;3.42;;;;;;;32.67;27.51;100909.56;5110540;27;20517;-79
2022/05/05 10:44:18;;;;;;;8.23;4.22;;;;;;;32.96;26.86;100913.09;5108813;28;20139;-81
2022/05/05 10:47:02;;;;;;;5.35;3.90;;;;;;;33.01;27.51;100901.06;5109467;27;20178;-78
2022/05/05 10:49:36;;;;;;;7.30;4.00;;;;;;;33.17;26.67;100910.00;5102536;28;20139;-79
2022/05/05 10:52:11;;;;;;;6.47;3.92;;;;;;;33.38;27.29;100905.25;5112684;27;20589;-79
2022/05/05 10:54:40;;;;;;;7.65;4.18;;;;;;;33.54;26.96;100898.91;5105548;27;20052;-79
2022/05/05 10:57:25;;;;;;;5.40;4.07;;;;;;;33.69;27.01;100906.19;5109330;28;20134;-78
2022/05/05 11:00:11;;;;;;;7.70;4.20;;;;;;;33.68;26.88;100902.47;5111461;27;20047;-78
2022/05/05 11:02:41;;;;;;;7.10;4.38;;;;;;;33.90;26.06;100910.91;5106002;27;20101;-78
2022/05/05 11:05:27;;;;;;;6.35;4.47;;;;;;;33.75;26.47;100903.66;5110626;28;20047;-78
2022/05/05 11:08:23;;;;;;;9.27;4.18;;;;;;;33.63;26.34;100905.81;5109580;27;20063;-80
2022/05/05 11:13:45;;;;;;;10.02;4.07;;;;;;;33.35;27.25;100882.94;5106339;28;20076;-79
2022/05/05 11:22:14;;;;;;;6.13;4.45;;;;;;;33.17;27.21;100886.84;5102757;28;20622;-79
2022/05/05 11:24:46;;;;;;;5.53;3.92;;;;;;;33.22;27.23;100885.56;5108160;28;20455;-79
2022/05/05 11:27:18;;;;;;;6.20;4.10;;;;;;;33.10;26.77;100858.00;5105177;28;20127;-77
2022/05/05 11:29:56;;;;;;;10.82;4.43;;;;;;;33.37;26.28;100874.63;5109844;28;20059;-76
2022/05/05 11:32:32;;;;;;;8.10;4.32;;;;;;;33.56;26.27;100879.03;5107591;28;20078;-75
2022/05/05 11:35:00;;;;;;;9.10;4.43;;;;;;;33.73;26.38;100881.72;5108048;27;20051;-75
2022/05/05 11:37:28;;;;;;;6.35;3.97;;;;;;;33.88;26.25;100884.41;5109410;28;20576;-74
2022/05/05 11:39:56;;;;;;;5.75;3.83;;;;;;;33.75;26.12;100851.50;5108745;28;20578;-75
2022/05/05 11:42:23;;;;;;;5.53;4.65;;;;;;;33.94;26.06;100888.47;5108213;28;20498;-79
2022/05/05 11:44:49;;;;;;;6.95;3.90;;;;;;;33.66;26.21;100878.09;5108719;28;20122;-79
2022/05/05 11:47:19;;;;;;;10.52;4.75;;;;;;;33.97;26.27;100893.41;5110667;28;21102;-78
2022/05/05 11:49:48;;;;;;;9.10;4.85;;;;;;;33.90;25.81;100867.44;5106230;28;20082;-78
2022/05/05 11:52:17;;;;;;;6.18;4.68;;;;;;;33.89;25.47;100851.31;5104341;28;20521;-77
2022/05/05 11:54:49;;;;;;;7.65;4.45;;;;;;;34.01;25.32;100873.13;5107011;28;20079;-77
2022/05/05 11:57:40;;;;;;;10.63;4.55;;;;;;;33.93;25.54;100863.66;5142521;27;20417;-77
2022/05/05 12:02:55;;;;;;;7.63;4.70;;;;;;;34.52;24.70;100889.38;5108835;28;20056;-77
2022/05/05 12:05:24;;;;;;;10.40;4.68;;;;;;;34.98;24.78;100876.19;5107752;28;20174;-77
2022/05/05 12:07:52;;;;;;;;;;;;;;;35.43;24.97;100887.44;5108929;28;20139;-80
2022/05/05 12:10:23;;;;;;;8.80;4.72;;;;;;;35.50;23.68;100866.13;5106917;28;19966;-77
2022/05/05 12:13:00;;;;;;;7.88;4.63;;;;;;;35.73;23.04;100869.00;5100972;28;20049;-79
2022/05/05 12:15:27;;;;;;;4.93;4.25;;;;;;;36.29;22.64;100885.66;5108372;28;20047;-78
2022/05/05 12:17:58;;;;;;;7.90;4.43;;;;;;;36.31;21.85;100868.59;5110586;28;20047;-77